createdAt,value
2023-05-25T00:00:53.424Z,7.85
2023-05-25T00:01:41.661Z,7.86
2023-05-25T00:02:41.684Z,7.82
2023-05-25T00:03:41.498Z,7.85
2023-05-25T00:04:41.386Z,7.90
2023-05-25T00:05:41.361Z,7.91
2023-05-25T00:06:41.204Z,7.85
2023-05-25T00:07:41.253Z,7.88
2023-05-25T00:08:41.036Z,7.90
2023-05-25T00:09:40.929Z,7.82
2023-05-25T00:10:40.844Z,7.86
2023-05-25T00:11:40.810Z,7.91
2023-05-25T00:12:40.679Z,7.88
2023-05-25T00:13:40.608Z,7.81
2023-05-25T00:14:40.510Z,7.81
2023-05-25T00:15:40.428Z,7.76
2023-05-25T00:16:40.385Z,7.68
2023-05-25T00:17:40.300Z,7.73
2023-05-25T00:18:40.375Z,7.68
2023-05-25T00:19:40.346Z,7.62
2023-05-25T00:20:40.066Z,7.57
2023-05-25T00:21:39.928Z,7.59
2023-05-25T00:22:39.844Z,7.57
2023-05-25T00:23:39.764Z,7.59
2023-05-25T00:24:39.807Z,7.62
2023-05-25T00:25:39.991Z,7.64
2023-05-25T00:26:39.527Z,7.68
2023-05-25T00:27:39.428Z,7.60
2023-05-25T00:28:39.341Z,7.60
2023-05-25T00:29:39.264Z,7.57
2023-05-25T00:30:39.267Z,7.53
2023-05-25T00:31:39.181Z,7.55
2023-05-25T00:32:39.077Z,7.57
2023-05-25T00:33:38.948Z,7.35
2023-05-25T00:34:38.863Z,7.39
2023-05-25T00:35:38.765Z,7.37
2023-05-25T01:29:31.797Z,6.66
2023-05-25T01:30:31.290Z,6.59
2023-05-25T01:31:31.226Z,6.65
2023-05-25T01:32:31.212Z,6.66
2023-05-25T01:33:31.033Z,6.66
2023-05-25T01:34:31.004Z,6.52
2023-05-25T01:35:30.872Z,6.55
2023-05-25T01:36:30.785Z,6.57
2023-05-25T01:37:30.701Z,6.47
2023-05-25T01:38:30.623Z,6.54
2023-05-25T01:39:30.589Z,6.41
2023-05-25T01:40:30.495Z,6.51
2023-05-25T01:41:30.358Z,6.47
2023-05-25T01:42:30.588Z,6.36
2023-05-25T01:43:30.191Z,6.50
2023-05-25T01:44:30.118Z,6.32
2023-05-25T01:45:30.045Z,6.44
2023-05-25T01:46:29.964Z,6.36
2023-05-25T01:47:29.887Z,6.36
2023-05-25T01:48:29.772Z,6.39
2023-05-25T01:49:29.732Z,6.42
2023-05-25T01:50:30.054Z,6.37
2023-05-25T01:51:29.555Z,6.47
2023-05-25T01:52:29.458Z,6.37
2023-05-25T01:53:29.347Z,6.42
2023-05-25T01:54:29.611Z,6.36
2023-05-25T01:55:29.195Z,6.36
2023-05-25T01:56:29.110Z,6.42
2023-05-25T01:57:29.008Z,6.39
2023-05-25T01:58:28.928Z,6.26
2023-05-25T01:59:28.839Z,6.36
2023-05-25T02:00:28.757Z,6.34
2023-05-25T02:01:28.738Z,6.27
2023-05-25T02:02:28.597Z,6.27
2023-05-25T02:03:28.501Z,6.34
2023-05-25T02:04:28.433Z,6.30
2023-05-25T02:05:28.353Z,6.30
2023-05-25T02:06:28.249Z,6.15
2023-05-25T02:07:28.261Z,6.17
2023-05-25T02:08:28.091Z,6.18
2023-05-25T02:09:27.999Z,6.15
2023-05-25T02:10:27.910Z,6.10
2023-05-25T02:11:27.825Z,6.04
2023-05-25T02:12:27.747Z,6.13
2023-05-25T02:13:27.661Z,6.10
2023-05-25T02:14:27.873Z,6.08
2023-05-25T02:15:27.490Z,6.08
2023-05-25T02:16:27.615Z,6.17
2023-05-25T02:17:27.362Z,6.08
2023-05-25T02:18:27.238Z,6.06
2023-05-25T02:19:27.160Z,6.11
2023-05-25T02:20:27.109Z,6.07
2023-05-25T02:21:27.004Z,6.08
2023-05-25T02:22:26.907Z,6.07
2023-05-25T02:23:26.814Z,6.11
2023-05-25T02:24:26.763Z,6.06
2023-05-25T02:25:26.667Z,6.03
2023-05-25T02:26:26.613Z,6.10
2023-05-25T02:27:26.477Z,6.04
2023-05-25T02:28:26.404Z,6.13
2023-05-25T02:29:26.310Z,6.11
2023-05-25T02:30:26.228Z,6.04
2023-05-25T02:31:26.193Z,6.07
2023-05-25T02:32:26.093Z,5.99
2023-05-25T02:33:26.005Z,6.13
2023-05-25T02:34:25.893Z,6.06
2023-05-25T02:35:25.817Z,6.03
2023-05-25T02:36:25.716Z,6.00
2023-05-25T02:37:25.638Z,5.99
2023-05-25T02:38:25.556Z,5.99
2023-05-25T02:39:25.461Z,5.97
2023-05-25T02:40:25.379Z,5.97
2023-05-25T02:41:25.294Z,5.97
2023-05-25T02:42:25.209Z,6.00
2023-05-25T02:43:25.124Z,5.97
2023-05-25T02:44:25.042Z,5.99
2023-05-25T02:45:24.951Z,6.06
2023-05-25T02:46:24.912Z,5.97
2023-05-25T02:47:24.798Z,6.03
2023-05-25T02:48:24.697Z,6.04
2023-05-25T02:49:24.636Z,5.97
2023-05-25T02:50:24.528Z,5.97
2023-05-25T02:51:24.442Z,5.99
2023-05-25T02:52:24.365Z,6.13
2023-05-25T02:53:24.274Z,5.99
2023-05-25T02:54:24.185Z,5.99
2023-05-25T02:55:24.100Z,5.96
2023-05-25T02:56:24.023Z,5.97
2023-05-25T02:57:23.929Z,6.06
2023-05-25T02:58:23.846Z,5.97
2023-05-25T02:59:23.761Z,5.90
2023-05-25T03:00:23.675Z,5.90
2023-05-25T03:01:23.673Z,5.95
2023-05-25T03:02:23.538Z,5.90
2023-05-25T03:03:23.454Z,5.88
2023-05-25T03:04:23.344Z,5.93
2023-05-25T03:05:23.347Z,5.92
2023-05-25T03:06:23.165Z,5.95
2023-05-25T03:07:23.088Z,5.86
2023-05-25T03:08:22.995Z,5.90
2023-05-25T03:09:22.908Z,5.92
2023-05-25T03:10:22.921Z,5.92
2023-05-25T03:11:22.753Z,5.93
2023-05-25T03:12:22.815Z,5.90
2023-05-25T03:13:22.867Z,5.83
2023-05-25T03:14:22.489Z,5.89
2023-05-25T03:15:22.412Z,5.92
2023-05-25T03:16:22.353Z,5.89
2023-05-25T03:17:22.288Z,5.95
2023-05-25T03:18:22.152Z,5.92
2023-05-25T03:19:22.058Z,5.89
2023-05-25T03:20:21.997Z,5.86
2023-05-25T03:21:21.915Z,5.90
2023-05-25T03:22:21.822Z,5.85
2023-05-25T03:23:21.720Z,5.78
2023-05-25T03:24:21.644Z,5.80
2023-05-25T03:25:21.554Z,5.78
2023-05-25T03:26:21.480Z,5.89
2023-05-25T03:27:21.380Z,5.80
2023-05-25T03:28:21.553Z,5.93
2023-05-25T03:29:21.209Z,6.00
2023-05-25T03:30:21.130Z,6.00
2023-05-25T03:31:21.077Z,6.04
2023-05-25T03:32:20.992Z,5.99
2023-05-25T03:33:20.872Z,5.99
2023-05-25T03:34:20.786Z,5.97
2023-05-25T03:35:20.700Z,5.90
2023-05-25T03:36:20.620Z,5.88
2023-05-25T03:37:20.565Z,5.88
2023-05-25T03:38:20.450Z,5.88
2023-05-25T03:39:20.665Z,5.83
2023-05-25T03:40:20.294Z,5.83
2023-05-25T03:41:20.194Z,5.88
2023-05-25T03:42:20.115Z,5.88
2023-05-25T03:43:20.032Z,5.90
2023-05-25T03:44:19.948Z,5.85
2023-05-25T03:45:19.859Z,5.88
2023-05-25T03:46:20.127Z,5.93
2023-05-25T03:47:19.713Z,5.83
2023-05-25T03:48:19.603Z,5.80
2023-05-25T03:49:19.570Z,5.77
2023-05-25T03:50:19.438Z,5.85
2023-05-25T03:51:19.350Z,5.93
2023-05-25T03:52:19.266Z,5.89
2023-05-25T03:53:19.402Z,5.95
2023-05-25T03:54:19.096Z,5.90
2023-05-25T03:55:19.008Z,5.99
2023-05-25T03:56:18.925Z,6.00
2023-05-25T03:57:18.837Z,5.99
2023-05-25T03:58:18.764Z,5.99
2023-05-25T03:59:18.680Z,5.95
2023-05-25T04:00:18.636Z,6.06
2023-05-25T04:01:18.502Z,6.10
2023-05-25T04:02:18.499Z,6.07
2023-05-25T04:03:18.430Z,6.11
2023-05-25T04:04:18.269Z,6.21
2023-05-25T04:05:18.163Z,6.17
2023-05-25T04:06:18.078Z,6.11
2023-05-25T04:07:17.993Z,6.21
2023-05-25T04:08:17.947Z,6.21
2023-05-25T04:09:18.247Z,6.18
2023-05-25T04:10:17.742Z,6.14
2023-05-25T04:11:17.652Z,6.18
2023-05-25T04:12:17.721Z,6.17
2023-05-25T04:13:17.488Z,6.17
2023-05-25T04:14:17.420Z,6.30
2023-05-25T04:15:17.511Z,6.29
2023-05-25T04:16:17.271Z,6.29
2023-05-25T04:17:17.149Z,6.30
2023-05-25T04:18:17.074Z,6.30
2023-05-25T04:19:16.984Z,6.41
2023-05-25T04:20:16.931Z,6.44
2023-05-25T04:21:16.820Z,6.37
2023-05-25T04:22:16.726Z,6.36
2023-05-25T04:23:16.646Z,6.42
2023-05-25T04:24:16.555Z,6.37
2023-05-25T04:25:16.567Z,6.42
2023-05-25T04:26:16.391Z,6.50
2023-05-25T04:27:16.305Z,6.51
2023-05-25T04:28:16.231Z,6.52
2023-05-25T04:29:16.144Z,6.55
2023-05-25T04:30:16.057Z,6.54
2023-05-25T04:31:16.004Z,6.66
2023-05-25T04:32:15.906Z,6.65
2023-05-25T04:33:15.807Z,6.66
2023-05-25T04:34:15.714Z,6.72
2023-05-25T04:35:15.645Z,6.72
2023-05-25T04:36:15.545Z,6.73
2023-05-25T04:37:15.456Z,6.87
2023-05-25T04:38:15.434Z,6.86
2023-05-25T04:39:15.294Z,6.84
2023-05-25T04:40:15.218Z,6.91
2023-05-25T04:41:15.212Z,6.91
2023-05-25T04:42:15.042Z,6.88
2023-05-25T04:43:15.406Z,6.88
2023-05-25T04:44:14.872Z,6.78
2023-05-25T04:45:14.791Z,6.86
2023-05-25T04:46:14.746Z,6.87
2023-05-25T04:47:14.619Z,6.93
2023-05-25T04:48:14.539Z,6.91
2023-05-25T04:49:14.471Z,6.96
2023-05-25T04:50:14.370Z,7.05
2023-05-25T04:51:14.676Z,7.01
2023-05-25T04:52:14.202Z,7.06
2023-05-25T04:53:14.117Z,7.19
2023-05-25T04:54:14.057Z,7.23
2023-05-25T04:55:14.258Z,7.26
2023-05-25T04:56:13.868Z,7.29
2023-05-25T04:57:13.843Z,7.31
2023-05-25T04:58:14.794Z,7.37
2023-05-25T04:59:13.611Z,7.45
2023-05-25T05:00:13.533Z,7.41
2023-05-25T05:01:13.481Z,7.52
2023-05-25T05:02:13.518Z,7.57
2023-05-25T05:03:13.383Z,7.59
2023-05-25T05:04:13.205Z,7.70
2023-05-25T05:05:13.145Z,7.78
2023-05-25T05:06:13.034Z,7.76
2023-05-25T05:07:12.949Z,7.73
2023-05-25T05:08:13.129Z,7.76
2023-05-25T05:09:12.777Z,7.85
2023-05-25T05:10:12.710Z,7.85
2023-05-25T05:11:12.635Z,7.83
2023-05-25T05:12:12.534Z,7.99
2023-05-25T05:13:12.488Z,7.99
2023-05-25T05:14:12.368Z,8.04
2023-05-25T05:15:12.286Z,8.12
2023-05-25T05:16:12.220Z,8.09
2023-05-25T05:17:12.138Z,8.15
2023-05-25T05:18:12.081Z,8.11
2023-05-25T05:19:11.951Z,8.17
2023-05-25T05:20:11.885Z,8.19
2023-05-25T05:21:11.786Z,8.21
2023-05-25T05:22:11.705Z,8.25
2023-05-25T05:23:11.621Z,8.30
2023-05-25T05:24:11.552Z,8.24
2023-05-25T05:25:11.458Z,8.32
2023-05-25T05:26:11.395Z,8.42
2023-05-25T05:27:11.288Z,8.40
2023-05-25T05:28:11.206Z,8.51
2023-05-25T05:29:11.142Z,8.54
2023-05-25T05:30:11.047Z,8.54
2023-05-25T05:31:10.963Z,8.65
2023-05-25T05:32:10.880Z,8.66
2023-05-25T05:33:10.927Z,8.68
2023-05-25T05:34:10.779Z,8.84
2023-05-25T05:35:10.633Z,8.85
2023-05-25T05:36:10.548Z,8.80
2023-05-25T05:37:10.468Z,8.93
2023-05-25T05:38:10.386Z,8.97
2023-05-25T05:39:10.403Z,9.02
2023-05-25T05:40:10.217Z,9.06
2023-05-25T05:41:10.136Z,9.13
2023-05-25T05:42:10.209Z,9.16
2023-05-25T05:43:09.969Z,9.17
2023-05-25T05:44:09.905Z,9.20
2023-05-25T05:45:09.888Z,9.37
2023-05-25T05:46:09.842Z,9.42
2023-05-25T05:47:09.857Z,9.45
2023-05-25T05:48:09.561Z,9.46
2023-05-25T05:49:09.480Z,9.42
2023-05-25T05:50:09.395Z,9.58
2023-05-25T05:51:09.315Z,9.53
2023-05-25T05:52:09.397Z,9.53
2023-05-25T05:53:09.149Z,9.53
2023-05-25T05:54:09.064Z,9.72
2023-05-25T05:55:09.001Z,9.85
2023-05-25T05:56:09.252Z,9.79
2023-05-25T05:57:08.816Z,9.82
2023-05-25T05:58:08.805Z,9.92
2023-05-25T05:59:08.679Z,9.93
2023-05-25T06:00:09.050Z,10.07
2023-05-25T06:01:08.523Z,10.11
2023-05-25T06:02:08.464Z,10.18
2023-05-25T06:03:08.706Z,10.15
2023-05-25T06:04:08.245Z,10.06
2023-05-25T06:05:08.206Z,10.11
2023-05-25T06:06:08.220Z,10.21
2023-05-25T06:07:08.011Z,10.19
2023-05-25T06:08:07.918Z,10.37
2023-05-25T06:09:07.856Z,10.43
2023-05-25T06:10:07.753Z,10.58
2023-05-25T06:11:07.678Z,10.53
2023-05-25T06:12:07.608Z,10.65
2023-05-25T06:13:07.516Z,10.66
2023-05-25T06:14:07.428Z,10.80
2023-05-25T06:15:07.347Z,10.77
2023-05-25T06:16:07.297Z,10.81
2023-05-25T06:17:08.188Z,10.84
2023-05-25T06:18:07.758Z,10.96
2023-05-25T06:19:07.020Z,10.81
2023-05-25T06:20:06.954Z,10.88
2023-05-25T06:21:06.905Z,10.81
2023-05-25T06:22:06.785Z,10.92
2023-05-25T06:23:06.999Z,11.00
2023-05-25T06:24:06.613Z,11.17
2023-05-25T06:25:06.840Z,11.31
2023-05-25T06:30:31.923Z,11.68
2023-05-25T06:31:31.865Z,11.71
2023-05-25T06:32:31.874Z,11.81
2023-05-25T06:33:31.681Z,11.79
2023-05-25T06:43:01.712Z,12.11
2023-05-25T06:45:01.550Z,12.24
2023-05-25T06:46:01.485Z,12.28
2023-05-25T06:47:01.417Z,12.37
2023-05-25T06:48:01.565Z,12.42
2023-05-25T06:49:01.237Z,12.37
2023-05-25T06:50:04.974Z,12.51
2023-05-25T06:51:01.054Z,12.53
2023-05-25T06:52:00.982Z,12.55
2023-05-25T06:53:03.927Z,12.74
2023-05-25T06:55:00.778Z,12.63
2023-05-25T06:56:00.742Z,12.71
2023-05-25T06:57:00.592Z,12.73
2023-05-25T06:59:40.646Z,13.00
2023-05-25T07:00:40.772Z,12.92
2023-05-25T07:01:40.521Z,13.02
2023-05-25T07:02:40.478Z,13.07
2023-05-25T07:03:40.346Z,13.04
2023-05-25T07:04:42.914Z,13.07
2023-05-25T07:05:40.169Z,13.18
2023-05-25T07:06:40.286Z,13.11
2023-05-25T07:07:40.009Z,13.07
2023-05-25T07:08:39.933Z,13.03
2023-05-25T07:10:42.393Z,13.19
2023-05-25T07:11:46.300Z,13.15
2023-05-25T07:12:44.798Z,13.18
2023-05-25T07:14:42.023Z,13.21
2023-05-25T07:15:42.025Z,13.22
2023-05-25T07:16:42.908Z,13.24
2023-05-25T07:17:41.803Z,13.33
2023-05-25T07:18:41.744Z,13.59
2023-05-25T07:19:41.665Z,13.73
2023-05-25T07:20:41.585Z,13.94
2023-05-25T07:21:41.464Z,14.01
2023-05-25T07:22:41.380Z,14.11
2023-05-25T07:23:41.336Z,14.28
2023-05-25T07:24:41.637Z,14.31
2023-05-25T07:26:38.657Z,14.39
2023-05-25T07:27:38.812Z,14.42
2023-05-25T07:28:39.303Z,14.56
2023-05-25T07:29:40.559Z,14.60
2023-05-25T07:30:38.353Z,14.67
2023-05-25T07:31:38.633Z,14.83
2023-05-25T07:32:38.209Z,14.95
2023-05-25T07:33:38.302Z,15.10
2023-05-25T07:34:38.505Z,15.18
2023-05-25T07:35:37.919Z,14.85
2023-05-25T07:36:37.881Z,14.91
2023-05-25T07:37:37.771Z,15.26
2023-05-25T07:38:37.734Z,15.43
2023-05-25T07:42:08.692Z,15.42
2023-05-25T07:43:08.699Z,15.57
2023-05-25T07:44:08.487Z,15.57
2023-05-25T07:45:08.415Z,15.57
2023-05-25T07:46:08.335Z,15.48
2023-05-25T07:47:08.298Z,15.27
2023-05-25T07:48:08.253Z,15.41
2023-05-25T07:49:08.093Z,15.43
2023-05-25T07:50:08.040Z,15.60
2023-05-25T07:51:07.957Z,15.67
2023-05-25T07:52:07.863Z,15.79
2023-05-25T07:53:07.782Z,15.81
2023-05-25T07:54:07.724Z,15.81
2023-05-25T07:55:07.676Z,15.76
2023-05-25T07:56:09.758Z,15.70
2023-05-25T07:57:07.479Z,15.71
2023-05-25T07:58:07.433Z,15.67
2023-05-25T07:59:07.320Z,15.83
2023-05-25T08:00:07.236Z,15.79
2023-05-25T08:01:07.171Z,15.73
2023-05-25T08:02:07.926Z,15.66
2023-05-25T08:03:07.484Z,15.73
2023-05-25T08:04:08.526Z,15.73
2023-05-25T08:05:49.352Z,15.75
2023-05-25T08:06:49.255Z,15.64
2023-05-25T08:07:49.175Z,15.70
2023-05-25T08:08:49.093Z,15.83
2023-05-25T08:09:49.019Z,15.83
2023-05-25T08:10:48.949Z,16.00
2023-05-25T08:12:47.109Z,16.16
2023-05-25T08:15:57.511Z,16.57
2023-05-25T08:16:57.321Z,16.55
2023-05-25T08:17:57.232Z,16.40
2023-05-25T08:18:57.143Z,16.47
2023-05-25T08:19:57.070Z,16.40
2023-05-25T08:20:57.010Z,16.60
2023-05-25T08:21:56.893Z,16.59
2023-05-25T08:22:56.816Z,16.50
2023-05-25T08:23:56.741Z,16.59
2023-05-25T08:24:56.660Z,16.60
2023-05-25T08:25:56.636Z,16.62
2023-05-25T08:26:56.509Z,16.60
2023-05-25T08:27:56.425Z,16.52
2023-05-25T08:28:56.362Z,16.44
2023-05-25T08:29:56.275Z,16.33
2023-05-25T08:30:56.229Z,16.30
2023-05-25T08:31:56.116Z,16.41
2023-05-25T08:32:56.105Z,16.47
2023-05-25T08:33:55.968Z,16.40
2023-05-25T08:34:55.888Z,16.30
2023-05-25T08:35:55.808Z,16.34
2023-05-25T08:36:55.754Z,16.27
2023-05-25T08:37:55.662Z,16.45
2023-05-25T08:38:55.575Z,16.59
2023-05-25T08:39:55.516Z,16.73
2023-05-25T08:40:55.424Z,16.89
2023-05-25T08:41:55.348Z,16.93
2023-05-25T08:42:55.265Z,16.93
2023-05-25T08:43:55.193Z,17.18
2023-05-25T08:44:55.113Z,17.21
2023-05-25T08:45:55.039Z,17.20
2023-05-25T08:46:55.002Z,17.20
2023-05-25T08:47:54.908Z,17.10
2023-05-25T08:48:56.049Z,17.15
2023-05-25T08:49:54.773Z,17.25
2023-05-25T08:50:54.653Z,17.30
2023-05-25T08:51:54.568Z,17.29
2023-05-25T08:52:54.524Z,17.43
2023-05-25T08:53:54.420Z,17.44
2023-05-25T08:54:54.550Z,17.43
2023-05-25T08:55:54.272Z,17.46
2023-05-25T08:56:54.217Z,17.48
2023-05-25T08:57:54.123Z,17.54
2023-05-25T08:58:54.037Z,17.55
2023-05-25T08:59:53.960Z,17.29
2023-05-25T09:00:53.888Z,17.33
2023-05-25T09:01:53.986Z,17.32
2023-05-25T09:03:41.279Z,17.54
2023-05-25T09:04:41.296Z,17.60
2023-05-25T09:05:41.135Z,17.67
2023-05-25T09:06:41.486Z,17.77
2023-05-25T09:07:40.913Z,17.67
2023-05-25T09:08:40.854Z,17.39
2023-05-25T09:09:40.765Z,17.54
2023-05-25T09:10:40.684Z,17.58
2023-05-25T09:11:42.221Z,17.69
2023-05-25T09:12:40.531Z,17.77
2023-05-25T09:13:40.455Z,17.69
2023-05-25T09:14:40.379Z,17.69
2023-05-25T09:15:40.301Z,17.60
2023-05-25T09:16:40.242Z,17.60
2023-05-25T09:17:40.176Z,17.55
2023-05-25T09:18:40.074Z,17.73
2023-05-25T09:19:39.997Z,17.82
2023-05-25T09:20:40.020Z,17.74
2023-05-25T09:21:39.844Z,17.79
2023-05-25T09:25:05.432Z,17.43
2023-05-25T09:26:05.334Z,17.48
2023-05-25T09:27:05.264Z,17.70
2023-05-25T09:28:24.664Z,17.89
2023-05-25T09:29:05.137Z,17.95
2023-05-25T09:34:13.833Z,17.81
2023-05-25T09:35:13.916Z,17.82
2023-05-25T09:36:13.724Z,17.92
2023-05-25T09:37:13.866Z,17.95
2023-05-25T09:38:13.704Z,17.95
2023-05-25T09:39:13.586Z,17.94
2023-05-25T09:40:14.787Z,17.87
2023-05-25T09:41:13.400Z,17.95
2023-05-25T09:46:22.043Z,17.88
2023-05-25T09:47:21.966Z,17.85
2023-05-25T09:48:21.893Z,17.74
2023-05-25T09:49:21.844Z,17.89
2023-05-25T09:50:21.732Z,18.02
2023-05-25T09:51:21.669Z,18.07
2023-05-25T09:52:21.868Z,18.18
2023-05-25T09:53:21.582Z,18.18
2023-05-25T09:54:21.451Z,18.21
2023-05-25T09:55:21.373Z,18.32
2023-05-25T09:57:21.428Z,18.57
2023-05-25T09:58:21.153Z,18.62
2023-05-25T10:00:20.993Z,18.52
2023-05-25T10:01:21.170Z,18.52
2023-05-25T10:02:21.044Z,18.49
2023-05-25T10:03:20.741Z,18.44
2023-05-25T10:04:20.702Z,18.40
2023-05-25T10:05:20.577Z,18.55
2023-05-25T10:06:20.505Z,18.64
2023-05-25T10:07:20.444Z,18.77
2023-05-25T10:08:20.354Z,18.82
2023-05-25T10:09:20.296Z,18.77
2023-05-25T10:10:20.202Z,18.83
2023-05-25T10:11:20.143Z,18.76
2023-05-25T10:12:20.056Z,18.67
2023-05-25T10:13:19.986Z,18.79
2023-05-25T10:14:19.896Z,18.89
2023-05-25T10:15:20.021Z,19.06
2023-05-25T10:16:20.006Z,19.18
2023-05-25T10:17:19.683Z,19.21
2023-05-25T10:18:19.590Z,19.18
2023-05-25T10:19:19.520Z,18.94
2023-05-25T10:20:19.469Z,18.90
2023-05-25T10:21:19.367Z,18.74
2023-05-25T10:22:19.349Z,18.79
2023-05-25T10:23:19.232Z,18.97
2023-05-25T10:24:19.381Z,19.14
2023-05-25T10:25:19.101Z,19.18
2023-05-25T10:26:19.807Z,19.18
2023-05-25T10:28:18.840Z,19.06
2023-05-25T10:29:18.762Z,19.17
2023-05-25T10:30:18.732Z,19.15
2023-05-25T10:31:18.662Z,19.23
2023-05-25T10:32:18.535Z,19.36
2023-05-25T10:33:18.539Z,19.20
2023-05-25T10:34:18.421Z,19.24
2023-05-25T10:35:18.362Z,19.38
2023-05-25T10:36:18.234Z,19.39
2023-05-25T10:37:18.168Z,19.43
2023-05-25T10:38:18.091Z,19.55
2023-05-25T10:39:18.010Z,19.54
2023-05-25T10:40:17.932Z,19.51
2023-05-25T10:41:17.894Z,19.63
2023-05-25T10:42:17.777Z,19.43
2023-05-25T10:43:17.810Z,19.40
2023-05-25T10:44:17.632Z,19.40
2023-05-25T10:45:17.606Z,19.54
2023-05-25T10:46:17.492Z,19.64
2023-05-25T10:47:20.121Z,19.71
2023-05-25T10:48:17.335Z,19.64
2023-05-25T10:49:17.654Z,19.57
2023-05-25T10:50:17.190Z,19.54
2023-05-25T10:51:17.106Z,19.54
2023-05-25T10:52:17.029Z,19.35
2023-05-25T10:53:16.953Z,19.28
2023-05-25T10:54:16.881Z,19.32
2023-05-25T10:55:16.805Z,19.39
2023-05-25T10:56:16.777Z,19.63
2023-05-25T10:57:16.685Z,19.63
2023-05-25T10:58:16.591Z,19.64
2023-05-25T10:59:16.525Z,19.69
2023-05-25T11:00:16.486Z,19.76
2023-05-25T11:01:16.649Z,19.72
2023-05-25T11:02:16.291Z,19.76
2023-05-25T11:03:16.204Z,19.94
2023-05-25T11:04:16.211Z,20.05
2023-05-25T11:05:16.053Z,20.15
2023-05-25T11:06:16.001Z,19.87
2023-05-25T11:07:15.907Z,19.88
2023-05-25T11:08:15.832Z,19.87
2023-05-25T11:09:16.056Z,19.73
2023-05-25T11:10:15.683Z,19.76
2023-05-25T11:11:15.612Z,19.76
2023-05-25T11:12:15.535Z,19.97
2023-05-25T11:13:15.458Z,19.76
2023-05-25T11:14:15.386Z,19.94
2023-05-25T11:15:15.697Z,20.13
2023-05-25T11:16:15.577Z,20.19
2023-05-25T11:17:15.683Z,20.31
2023-05-25T11:18:15.088Z,20.53
2023-05-25T11:19:15.047Z,20.40
2023-05-25T11:20:15.094Z,20.59
2023-05-25T11:21:14.871Z,20.59
2023-05-25T11:22:14.801Z,20.53
2023-05-25T11:23:14.731Z,20.42
2023-05-25T11:24:14.663Z,20.65
2023-05-25T11:25:17.197Z,20.99
2023-05-25T11:27:01.987Z,21.06
2023-05-25T11:28:01.919Z,21.24
2023-05-25T11:29:01.866Z,21.17
2023-05-25T11:30:01.778Z,21.09
2023-05-25T11:31:01.733Z,21.17
2023-05-25T11:32:01.626Z,21.29
2023-05-25T11:41:39.204Z,22.81
2023-05-25T11:42:39.130Z,23.11
2023-05-25T11:43:39.062Z,23.24
2023-05-25T11:44:38.998Z,23.55
2023-05-25T11:45:38.929Z,23.93
2023-05-25T11:46:38.984Z,23.83
2023-05-25T11:55:13.955Z,24.57
2023-05-25T11:57:13.824Z,24.50
2023-05-25T11:58:13.762Z,24.79
2023-05-25T11:59:13.694Z,24.97
2023-05-25T12:00:13.635Z,25.09
2023-05-25T12:01:13.581Z,24.97
2023-05-25T12:02:13.551Z,24.26
2023-05-25T12:03:14.548Z,24.19
2023-05-25T12:04:13.485Z,24.27
2023-05-25T12:05:13.365Z,24.32
2023-05-25T12:06:13.233Z,24.41
2023-05-25T12:07:13.168Z,24.66
2023-05-25T12:08:13.205Z,24.98
2023-05-25T12:09:13.050Z,25.04
2023-05-25T12:10:13.031Z,25.19
2023-05-25T12:11:13.311Z,25.37
2023-05-25T12:12:13.859Z,25.87
2023-05-25T12:13:12.782Z,26.23
2023-05-25T12:14:12.722Z,26.60
2023-05-25T12:17:38.373Z,26.15
2023-05-25T12:18:38.298Z,26.09
2023-05-25T12:23:52.072Z,25.62
2023-05-25T12:25:50.836Z,25.72
2023-05-25T12:26:44.656Z,25.82
2023-05-25T12:27:44.585Z,25.55
2023-05-25T12:28:44.514Z,25.97
2023-05-25T12:29:44.450Z,25.86
2023-05-25T12:30:44.401Z,25.62
2023-05-25T12:31:44.328Z,26.04
2023-05-25T12:32:44.307Z,26.32
2023-05-25T12:33:44.199Z,26.42
2023-05-25T12:34:44.145Z,26.11
2023-05-25T12:35:44.410Z,26.07
2023-05-25T12:36:44.025Z,25.84
2023-05-25T12:37:43.961Z,25.84
2023-05-25T12:38:43.897Z,26.11
2023-05-25T12:39:43.840Z,26.72
2023-05-25T12:40:44.936Z,26.83
2023-05-25T12:41:43.717Z,27.13
2023-05-25T12:42:43.655Z,27.20
2023-05-25T12:43:43.594Z,26.82
2023-05-25T12:44:43.524Z,26.79
2023-05-25T12:45:43.585Z,27.07
2023-05-25T12:46:44.854Z,27.19
2023-05-25T12:47:43.678Z,26.99
2023-05-25T12:48:44.516Z,27.39
2023-05-25T12:49:43.223Z,27.41
2023-05-25T12:50:43.588Z,27.38
2023-05-25T12:51:43.100Z,26.72
2023-05-25T12:53:35.563Z,26.87
2023-05-25T12:54:35.487Z,27.27
2023-05-25T12:55:35.457Z,27.23
2023-05-25T12:56:35.411Z,27.04
2023-05-25T12:57:35.300Z,26.68
2023-05-25T12:58:35.240Z,25.86
2023-05-25T12:59:35.188Z,26.20
2023-05-25T13:00:35.130Z,26.35
2023-05-25T13:01:35.088Z,26.32
2023-05-25T13:02:35.036Z,26.61
2023-05-25T13:03:34.949Z,27.02
2023-05-25T13:04:34.938Z,27.27
2023-05-25T13:05:34.854Z,27.27
2023-05-25T13:06:34.759Z,27.29
2023-05-25T13:07:34.798Z,27.08
2023-05-25T13:08:34.658Z,26.83
2023-05-25T13:09:34.603Z,26.47
2023-05-25T13:10:34.516Z,26.62
2023-05-25T13:11:34.456Z,26.84
2023-05-25T13:12:34.695Z,27.13
2023-05-25T13:13:34.329Z,27.09
2023-05-25T13:14:34.275Z,26.76
2023-05-25T13:15:34.247Z,26.72
2023-05-25T13:16:34.219Z,27.01
2023-05-25T13:17:34.142Z,27.14
2023-05-25T13:18:34.028Z,27.64
2023-05-25T13:19:33.981Z,27.60
2023-05-25T13:20:33.967Z,27.79
2023-05-25T13:21:33.849Z,28.17
2023-05-25T13:22:33.793Z,28.51
2023-05-25T13:23:33.733Z,28.66
2023-05-25T13:24:33.666Z,28.24
2023-05-25T13:25:33.609Z,28.09
2023-05-25T13:26:33.547Z,27.13
2023-05-25T13:27:33.491Z,26.67
2023-05-25T13:28:33.429Z,26.53
2023-05-25T13:29:33.374Z,26.94
2023-05-25T13:30:33.312Z,27.42
2023-05-25T13:31:33.308Z,27.73
2023-05-25T13:32:33.366Z,27.84
2023-05-25T13:33:33.327Z,28.10
2023-05-25T13:34:33.070Z,28.13
2023-05-25T13:35:33.033Z,27.95
2023-05-25T13:36:32.965Z,27.99
2023-05-25T13:38:32.828Z,27.24
2023-05-25T13:39:32.765Z,27.35
2023-05-25T13:40:32.725Z,27.35
2023-05-25T13:41:32.643Z,27.65
2023-05-25T13:42:32.603Z,27.89
2023-05-25T13:43:32.825Z,28.17
2023-05-25T13:44:32.515Z,27.54
2023-05-25T13:45:32.427Z,27.84
2023-05-25T13:46:35.018Z,27.32
2023-05-25T13:47:32.385Z,27.64
2023-05-25T13:48:32.258Z,27.67
2023-05-25T13:49:32.170Z,27.69
2023-05-25T13:50:32.564Z,27.79
2023-05-25T13:51:32.044Z,27.82
2023-05-25T13:52:32.050Z,27.94
2023-05-25T13:53:31.924Z,27.92
2023-05-25T13:54:31.858Z,28.09
2023-05-25T13:55:31.802Z,28.47
2023-05-25T13:56:31.744Z,28.90
2023-05-25T13:57:31.675Z,28.65
2023-05-25T13:58:31.617Z,28.47
2023-05-25T13:59:31.560Z,28.61
2023-05-25T14:00:31.503Z,27.94
2023-05-25T14:01:31.541Z,27.27
2023-05-25T14:02:31.427Z,27.35
2023-05-25T14:03:31.512Z,27.94
2023-05-25T14:04:31.254Z,28.02
2023-05-25T14:05:31.193Z,27.31
2023-05-25T14:06:31.134Z,27.17
2023-05-25T14:07:31.073Z,27.24
2023-05-25T14:08:31.028Z,27.61
2023-05-25T14:09:30.960Z,27.45
2023-05-25T14:10:30.889Z,27.31
2023-05-25T14:11:30.830Z,27.20
2023-05-25T14:12:30.765Z,27.14
2023-05-25T14:13:30.714Z,27.05
2023-05-25T14:14:32.506Z,27.34
2023-05-25T14:15:30.594Z,27.27
2023-05-25T14:16:30.603Z,27.13
2023-05-25T14:17:30.499Z,27.84
2023-05-25T14:18:30.401Z,28.06
2023-05-25T14:19:30.351Z,28.17
2023-05-25T14:20:30.305Z,28.46
2023-05-25T14:21:30.213Z,27.88
2023-05-25T14:22:30.150Z,28.11
2023-05-25T14:23:30.089Z,28.14
2023-05-25T14:24:30.064Z,28.34
2023-05-25T14:25:29.968Z,27.92
2023-05-25T14:26:29.906Z,27.54
2023-05-25T14:27:29.873Z,27.51
2023-05-25T14:28:29.781Z,27.94
2023-05-25T14:29:29.721Z,27.89
2023-05-25T14:30:29.656Z,27.67
2023-05-25T14:31:29.638Z,27.65
2023-05-25T14:32:29.586Z,27.84
2023-05-25T14:33:29.471Z,27.62
2023-05-25T14:34:29.478Z,28.22
2023-05-25T14:35:29.353Z,28.50
2023-05-25T14:36:29.287Z,28.88
2023-05-25T14:37:29.228Z,29.14
2023-05-25T14:38:29.167Z,28.73
2023-05-25T14:39:29.357Z,28.56
2023-05-25T14:40:29.071Z,28.63
2023-05-25T14:41:28.981Z,28.69
2023-05-25T14:42:29.217Z,28.65
2023-05-25T14:43:28.860Z,28.47
2023-05-25T14:44:28.806Z,28.16
2023-05-25T14:45:28.738Z,27.41
2023-05-25T14:46:28.753Z,27.36
2023-05-25T14:47:28.651Z,27.51
2023-05-25T14:48:28.641Z,27.65
2023-05-25T14:49:28.606Z,27.79
2023-05-25T14:50:30.343Z,27.83
2023-05-25T14:51:28.367Z,27.88
2023-05-25T14:52:28.298Z,27.65
2023-05-25T14:53:28.262Z,27.89
2023-05-25T14:54:28.179Z,27.88
2023-05-25T14:55:28.122Z,28.04
2023-05-25T14:56:28.074Z,28.32
2023-05-25T14:57:27.993Z,28.34
2023-05-25T14:58:30.551Z,28.31
2023-05-25T14:59:27.870Z,28.26
2023-05-25T15:00:27.807Z,28.10
2023-05-25T15:01:27.766Z,28.28
2023-05-25T15:02:27.783Z,28.32